createdAt,value
2019-03-28T00:00:48.530Z,101280.37
2019-03-28T00:03:18.149Z,101279.56
2019-03-28T00:05:47.880Z,101278.46
2019-03-28T00:08:17.405Z,101273.38
2019-03-28T00:10:48.574Z,101278.24
2019-03-28T00:13:18.200Z,101272.73
2019-03-28T00:15:47.930Z,101283.07
2019-03-28T00:18:17.661Z,101281.17
2019-03-28T00:20:47.428Z,101278.50
2019-03-28T00:23:21.215Z,101283.92
2019-03-28T00:25:50.763Z,101281.22
2019-03-28T00:28:20.260Z,101283.89
2019-03-28T00:30:49.863Z,101282.98
2019-03-28T00:33:19.384Z,101288.77
2019-03-28T00:35:48.928Z,101288.06
2019-03-28T00:38:18.536Z,101286.39
2019-03-28T00:40:48.153Z,101284.41
2019-03-28T00:43:17.922Z,101287.08
2019-03-28T00:45:47.648Z,101286.09
2019-03-28T00:48:17.281Z,101287.45
2019-03-28T00:50:46.918Z,101284.23
2019-03-28T00:53:16.639Z,101274.41
2019-03-28T00:55:46.183Z,101291.34
2019-03-28T00:58:15.797Z,101290.31
2019-03-28T01:00:45.529Z,101296.22
2019-03-28T01:03:15.158Z,101296.38
2019-03-28T01:05:44.780Z,101305.58
2019-03-28T01:08:14.510Z,101293.92
2019-03-28T01:10:44.243Z,101310.27
2019-03-28T01:13:13.867Z,101310.34
2019-03-28T01:15:43.516Z,101313.79
2019-03-28T01:18:12.997Z,101318.78
2019-03-28T01:20:42.748Z,101329.88
2019-03-28T01:23:12.478Z,101323.85
2019-03-28T01:25:42.105Z,101324.06
2019-03-28T01:28:11.838Z,101332.86
2019-03-28T01:30:41.565Z,101328.99
2019-03-28T01:33:11.095Z,101338.27
2019-03-28T01:35:40.819Z,101335.17
2019-03-28T01:38:10.452Z,101337.84
2019-03-28T01:40:40.182Z,101327.77
2019-03-28T01:43:09.921Z,101333.75
2019-03-28T01:45:39.646Z,101336.86
2019-03-28T01:48:09.381Z,101344.02
2019-03-28T01:50:39.018Z,101347.11
2019-03-28T01:53:08.633Z,101353.31
2019-03-28T01:55:38.262Z,101354.98
2019-03-28T01:58:07.888Z,101351.19
2019-03-28T02:00:37.438Z,101350.16
2019-03-28T02:03:08.777Z,101365.20
2019-03-28T02:05:38.513Z,101360.69
2019-03-28T02:08:08.132Z,101364.41
2019-03-28T02:10:37.864Z,101376.27
2019-03-28T02:13:07.593Z,101379.93
2019-03-28T02:15:37.338Z,101374.80
2019-03-28T02:18:07.159Z,101383.25
2019-03-28T02:20:36.786Z,101392.09
2019-03-28T02:23:06.530Z,101402.02
2019-03-28T02:25:36.255Z,101393.22
2019-03-28T02:28:05.970Z,101403.65
2019-03-28T02:30:35.614Z,101407.44
2019-03-28T02:33:05.330Z,101414.50
2019-03-28T02:35:34.944Z,101410.35
2019-03-28T02:38:04.597Z,101423.77
2019-03-28T02:40:34.327Z,101418.28
2019-03-28T02:43:04.071Z,101427.84
2019-03-28T02:45:33.675Z,101424.53
2019-03-28T02:48:03.308Z,101434.59
2019-03-28T02:50:33.048Z,101425.66
2019-03-28T02:53:02.775Z,101431.38
2019-03-28T02:55:32.392Z,101440.64
2019-03-28T02:58:02.335Z,101440.64
2019-03-28T03:00:32.064Z,101437.98
2019-03-28T03:03:01.809Z,101443.17
2019-03-28T03:05:31.541Z,101443.03
2019-03-28T03:08:01.048Z,101452.67
2019-03-28T03:10:30.675Z,101453.73
2019-03-28T03:13:00.304Z,101457.67
2019-03-28T03:15:30.304Z,101454.51
2019-03-28T03:18:00.243Z,101460.49
2019-03-28T03:20:29.906Z,101462.95
2019-03-28T03:22:59.533Z,101461.34
2019-03-28T03:25:29.174Z,101466.68
2019-03-28T03:27:59.439Z,101473.20
2019-03-28T03:30:29.846Z,101482.91
2019-03-28T03:32:59.212Z,101484.40
2019-03-28T03:35:28.885Z,101489.45
2019-03-28T03:37:58.628Z,101481.53
2019-03-28T03:40:28.234Z,101499.11
2019-03-28T03:42:57.839Z,101501.17
2019-03-28T03:45:27.616Z,101506.10
2019-03-28T03:47:57.342Z,101509.61
2019-03-28T03:50:30.011Z,101516.98
2019-03-28T03:52:59.675Z,101516.43
2019-03-28T03:55:29.196Z,101525.02
2019-03-28T03:58:14.459Z,101532.23
2019-03-28T04:00:33.662Z,101540.56
2019-03-28T04:03:03.421Z,101541.80
2019-03-28T04:05:33.126Z,101545.87
2019-03-28T04:08:02.758Z,101550.98
2019-03-28T04:10:32.384Z,101548.63
2019-03-28T04:13:01.914Z,101554.10
2019-03-28T04:15:31.754Z,101560.95
2019-03-28T04:18:01.380Z,101561.23
2019-03-28T04:20:30.899Z,101559.05
2019-03-28T04:23:00.637Z,101567.80
2019-03-28T04:25:30.173Z,101567.98
2019-03-28T04:27:59.876Z,101574.23
2019-03-28T04:30:29.608Z,101575.87
2019-03-28T04:32:59.240Z,101577.62
2019-03-28T04:35:28.985Z,101584.42
2019-03-28T04:37:58.778Z,101584.69
2019-03-28T04:40:28.629Z,101580.31
2019-03-28T04:42:58.260Z,101578.70
2019-03-28T04:45:27.898Z,101584.86
2019-03-28T04:47:57.521Z,101591.38
2019-03-28T04:50:27.093Z,101591.38
2019-03-28T04:52:56.772Z,101580.22
2019-03-28T04:55:26.512Z,101590.66
2019-03-28T04:57:56.129Z,101597.84
2019-03-28T05:00:27.492Z,101586.51
2019-03-28T05:02:57.850Z,101597.48
2019-03-28T05:05:27.573Z,101604.83
2019-03-28T05:07:57.202Z,101607.67
2019-03-28T05:10:26.742Z,101607.98
2019-03-28T05:12:56.453Z,101614.64
2019-03-28T05:15:26.081Z,101615.90
2019-03-28T05:17:55.809Z,101626.38
2019-03-28T05:20:25.442Z,101634.41
2019-03-28T05:22:55.063Z,101632.50
2019-03-28T05:25:24.799Z,101633.27
2019-03-28T05:27:54.440Z,101641.70
2019-03-28T05:30:24.050Z,101639.75
2019-03-28T05:32:53.686Z,101644.36
2019-03-28T05:35:23.203Z,101650.59
2019-03-28T05:37:52.830Z,101645.26
2019-03-28T05:40:22.950Z,101636.39
2019-03-28T05:42:53.933Z,101648.48
2019-03-28T05:45:23.577Z,101650.37
2019-03-28T05:47:53.189Z,101653.91
2019-03-28T05:50:22.817Z,101653.98
2019-03-28T05:52:52.547Z,101655.69
2019-03-28T05:55:22.271Z,101657.91
2019-03-28T05:57:51.945Z,101662.43
2019-03-28T06:00:21.534Z,101667.02
2019-03-28T06:02:51.267Z,101672.72
2019-03-28T06:05:20.997Z,101671.91
2019-03-28T06:07:52.173Z,101685.03
2019-03-28T06:10:21.915Z,101682.23
2019-03-28T06:12:51.626Z,101689.95
2019-03-28T06:15:21.347Z,101692.92
2019-03-28T06:17:50.875Z,101698.42
2019-03-28T06:20:20.600Z,101698.91
2019-03-28T06:22:50.327Z,101700.50
2019-03-28T06:25:20.180Z,101703.13
2019-03-28T06:27:50.102Z,101708.56
2019-03-28T06:30:19.823Z,101709.11
2019-03-28T06:32:49.562Z,101716.78
2019-03-28T06:35:21.824Z,101719.57
2019-03-28T06:37:51.599Z,101720.06
2019-03-28T06:40:21.368Z,101724.54
2019-03-28T06:42:51.130Z,101720.64
2019-03-28T06:45:20.761Z,101728.03
2019-03-28T06:47:50.389Z,101720.38
2019-03-28T06:50:20.017Z,101730.96
2019-03-28T06:52:49.699Z,101728.80
2019-03-28T06:55:19.376Z,101737.20
2019-03-28T06:57:49.005Z,101737.81
2019-03-28T07:00:18.547Z,101740.62
2019-03-28T07:02:48.166Z,101734.52
2019-03-28T07:05:17.789Z,101741.89
2019-03-28T07:07:47.534Z,101736.67
2019-03-28T07:10:17.084Z,101736.20
2019-03-28T07:12:46.786Z,101740.91
2019-03-28T07:15:16.401Z,101739.30
2019-03-28T07:17:46.022Z,101737.20
2019-03-28T07:20:15.550Z,101741.48
2019-03-28T07:22:46.100Z,101743.59
2019-03-28T07:25:16.851Z,101744.95
2019-03-28T07:27:46.352Z,101749.72
2019-03-28T07:30:17.755Z,101749.05
2019-03-28T07:32:47.272Z,101750.88
2019-03-28T07:35:17.006Z,101760.14
2019-03-28T07:37:46.629Z,101759.97
2019-03-28T07:40:16.250Z,101756.08
2019-03-28T07:42:45.884Z,101753.95
2019-03-28T07:45:15.511Z,101758.03
2019-03-28T07:47:45.137Z,101766.05
2019-03-28T07:50:16.518Z,101767.25
2019-03-28T07:52:46.139Z,101770.93
2019-03-28T07:55:16.595Z,101769.61
2019-03-28T07:57:46.748Z,101775.76
2019-03-28T08:00:16.349Z,101772.56
2019-03-28T08:02:45.981Z,101774.20
2019-03-28T08:05:15.612Z,101780.13
2019-03-28T08:07:46.448Z,101777.10
2019-03-28T08:10:16.711Z,101786.69
2019-03-28T08:12:46.430Z,101787.50
2019-03-28T08:15:16.258Z,101786.48
2019-03-28T08:17:45.895Z,101786.48
2019-03-28T08:20:15.625Z,101791.88
2019-03-28T08:22:45.249Z,101793.89
2019-03-28T08:25:14.986Z,101797.97
2019-03-28T08:27:44.618Z,101793.76
2019-03-28T08:30:18.579Z,101795.48
2019-03-28T08:32:45.705Z,101792.27
2019-03-28T08:35:15.233Z,101790.60
2019-03-28T08:37:45.176Z,101781.14
2019-03-28T08:40:17.967Z,101789.06
2019-03-28T08:42:47.729Z,101782.82
2019-03-28T08:45:17.525Z,101782.74
2019-03-28T08:47:47.120Z,101782.44
2019-03-28T08:50:16.886Z,101780.72
2019-03-28T08:52:46.725Z,101780.95
2019-03-28T08:55:16.461Z,101781.88
2019-03-28T08:57:46.143Z,101785.16
2019-03-28T09:00:16.781Z,101792.16
2019-03-28T09:02:47.077Z,101799.02
2019-03-28T09:05:16.698Z,101786.84
2019-03-28T09:07:46.325Z,101794.12
2019-03-28T09:10:15.950Z,101792.70
2019-03-28T09:12:45.863Z,101798.91
2019-03-28T09:15:15.672Z,101790.28
2019-03-28T09:17:45.352Z,101793.81
2019-03-28T09:20:14.979Z,101784.30
2019-03-28T09:22:45.729Z,101781.64
2019-03-28T09:25:15.565Z,101790.92
2019-03-28T09:27:45.198Z,101794.27
2019-03-28T09:30:14.814Z,101791.45
2019-03-28T09:32:44.559Z,101789.78
2019-03-28T09:35:20.004Z,101791.31
2019-03-28T09:37:49.639Z,101786.70
2019-03-28T09:40:19.212Z,101794.25
2019-03-28T09:42:48.897Z,101790.77
2019-03-28T09:45:18.628Z,101791.66
2019-03-28T09:47:48.244Z,101801.34
2019-03-28T09:50:18.088Z,101794.95
2019-03-28T09:52:47.710Z,101805.28
2019-03-28T09:55:19.039Z,101799.30
2019-03-28T09:57:48.708Z,101805.28
2019-03-28T10:00:18.547Z,101804.20
2019-03-28T10:02:48.061Z,101798.64
2019-03-28T10:05:17.682Z,101806.34
2019-03-28T10:07:47.379Z,101798.39
2019-03-28T10:10:17.053Z,101804.25
2019-03-28T10:12:46.785Z,101805.24
2019-03-28T10:15:16.205Z,101789.56
2019-03-28T10:17:45.827Z,101796.37
2019-03-28T10:20:15.567Z,101758.80
2019-03-28T10:22:45.191Z,101792.80
2019-03-28T10:25:14.832Z,101786.05
2019-03-28T10:27:44.553Z,101792.62
2019-03-28T10:30:14.276Z,101794.53
2019-03-28T10:32:44.011Z,101795.39
2019-03-28T10:35:16.923Z,101795.33
2019-03-28T10:37:46.533Z,101801.00
2019-03-28T10:40:16.273Z,101793.02
2019-03-28T10:42:45.894Z,101786.40
2019-03-28T10:45:15.533Z,101785.30
2019-03-28T10:47:45.351Z,101790.89
2019-03-28T10:50:14.987Z,101791.52
2019-03-28T10:52:44.611Z,101785.56
2019-03-28T10:55:14.139Z,101784.31
2019-03-28T10:57:43.781Z,101775.80
2019-03-28T11:00:23.547Z,101788.59
2019-03-28T11:02:44.845Z,101777.91
2019-03-28T11:05:14.812Z,101781.45
2019-03-28T11:07:46.074Z,101786.66
2019-03-28T11:10:15.599Z,101781.03
2019-03-28T11:12:45.226Z,101778.60
2019-03-28T11:15:14.845Z,101781.16
2019-03-28T11:17:44.369Z,101765.09
2019-03-28T11:20:14.093Z,101777.81
2019-03-28T11:22:43.851Z,101773.46
2019-03-28T11:25:13.563Z,101770.53
2019-03-28T11:27:43.207Z,101768.12
2019-03-28T11:30:13.018Z,101764.30
2019-03-28T11:32:42.642Z,101763.91
2019-03-28T11:35:12.378Z,101763.14
2019-03-28T11:37:42.107Z,101770.69
2019-03-28T11:40:12.837Z,101761.09
2019-03-28T11:42:43.006Z,101759.42
2019-03-28T11:45:12.726Z,101763.80
2019-03-28T11:47:42.461Z,101758.42
2019-03-28T11:50:12.217Z,101773.56
2019-03-28T11:52:42.794Z,101774.81
2019-03-28T11:55:12.671Z,101772.22
2019-03-28T11:57:42.315Z,101767.31
2019-03-28T12:00:14.282Z,101777.27
2019-03-28T12:02:44.004Z,101771.69
2019-03-28T12:05:13.744Z,101760.00
2019-03-28T12:07:43.471Z,101761.25
2019-03-28T12:10:13.209Z,101750.39
2019-03-28T12:12:42.961Z,101755.24
2019-03-28T12:15:13.277Z,101747.83
2019-03-28T12:17:42.342Z,101756.58
2019-03-28T12:20:11.811Z,101743.53
2019-03-28T12:22:41.549Z,101742.09
2019-03-28T12:25:11.246Z,101734.62
2019-03-28T12:27:40.898Z,101731.67
2019-03-28T12:30:15.611Z,101733.45
2019-03-28T12:32:43.639Z,101732.86
2019-03-28T12:35:13.237Z,101731.95
2019-03-28T12:37:42.885Z,101724.30
2019-03-28T12:40:12.892Z,101721.47
2019-03-28T12:42:42.552Z,101729.34
2019-03-28T12:45:12.403Z,101714.77
2019-03-28T12:47:43.159Z,101710.27
2019-03-28T12:50:14.000Z,101713.36
2019-03-28T12:52:45.001Z,101708.31
2019-03-28T12:55:15.399Z,101704.48
2019-03-28T12:57:48.119Z,101704.58
2019-03-28T13:00:16.500Z,101697.55
2019-03-28T13:02:47.248Z,101710.46
2019-03-28T13:05:16.979Z,101699.27
2019-03-28T13:07:46.709Z,101724.39
2019-03-28T13:10:16.337Z,101725.41
2019-03-28T13:12:45.869Z,101728.69
2019-03-28T13:15:15.581Z,101730.19
2019-03-28T13:17:45.219Z,101728.55
2019-03-28T13:20:14.951Z,101743.58
2019-03-28T13:22:44.683Z,101759.59
2019-03-28T13:25:14.515Z,101761.35
2019-03-28T13:27:44.347Z,101755.67
2019-03-28T13:30:14.314Z,101760.45
2019-03-28T13:32:44.009Z,101759.65
2019-03-28T13:35:13.646Z,101765.89
2019-03-28T13:37:43.346Z,101769.63
2019-03-28T13:40:13.202Z,101769.29
2019-03-28T13:42:42.930Z,101774.06
2019-03-28T13:45:12.564Z,101774.70
2019-03-28T13:47:42.283Z,101780.61
2019-03-28T13:50:12.361Z,101777.59
2019-03-28T13:52:42.062Z,101779.58
2019-03-28T13:55:11.945Z,101771.75
2019-03-28T13:57:43.459Z,101769.02
2019-03-28T14:00:13.091Z,101773.58
2019-03-28T14:02:54.897Z,101778.12
2019-03-28T14:05:14.088Z,101776.14
2019-03-28T14:07:43.815Z,101786.81
2019-03-28T14:10:13.346Z,101792.27
2019-03-28T14:12:42.868Z,101787.55
2019-03-28T14:15:12.611Z,101795.64
2019-03-28T14:17:42.315Z,101789.23
2019-03-28T14:20:12.048Z,101783.04
2019-03-28T14:22:42.298Z,101790.59
2019-03-28T14:25:11.920Z,101795.20
2019-03-28T14:27:41.759Z,101789.63
2019-03-28T14:30:11.879Z,101801.00
2019-03-28T14:32:52.592Z,101800.19
2019-03-28T14:35:13.000Z,101802.80
2019-03-28T14:37:42.832Z,101805.58
2019-03-28T14:40:12.563Z,101811.27
2019-03-28T14:42:42.284Z,101803.05
2019-03-28T14:45:12.030Z,101814.11
2019-03-28T14:47:41.748Z,101822.81
2019-03-28T14:50:11.681Z,101816.80
2019-03-28T14:52:41.316Z,101820.00
2019-03-28T14:55:11.139Z,101824.95
2019-03-28T14:57:41.183Z,101834.78
2019-03-28T15:00:13.979Z,101826.22
2019-03-28T15:02:43.799Z,101830.20
2019-03-28T15:05:13.533Z,101823.72
2019-03-28T15:07:43.058Z,101824.33
2019-03-28T15:10:13.914Z,101822.98
2019-03-28T15:12:43.747Z,101832.11
2019-03-28T15:15:13.373Z,101829.06
2019-03-28T15:17:44.976Z,101822.27
2019-03-28T15:20:14.262Z,101839.48
2019-03-28T15:22:44.006Z,101852.02
2019-03-28T15:25:13.624Z,101848.59
2019-03-28T15:27:43.671Z,101864.97
2019-03-28T15:30:13.288Z,101867.30
2019-03-28T15:32:42.913Z,101875.80
2019-03-28T15:35:12.639Z,101880.04
2019-03-28T15:37:42.379Z,101888.13
2019-03-28T15:40:12.106Z,101886.78
2019-03-28T15:42:41.946Z,101887.62
2019-03-28T15:45:11.561Z,101883.39
2019-03-28T15:47:41.435Z,101885.37
2019-03-28T15:50:11.126Z,101883.45
2019-03-28T15:52:41.988Z,101891.37
2019-03-28T15:55:14.556Z,101892.38
2019-03-28T15:57:43.185Z,101897.38
2019-03-28T16:00:12.825Z,101898.22
2019-03-28T16:02:42.411Z,101904.45
2019-03-28T16:05:12.064Z,101904.47
2019-03-28T16:07:41.807Z,101903.34
2019-03-28T16:10:14.553Z,101903.53
2019-03-28T16:12:42.890Z,101911.78
2019-03-28T16:15:12.428Z,101908.61
2019-03-28T16:17:42.150Z,101913.70
2019-03-28T16:20:11.768Z,101912.39
2019-03-28T16:22:41.355Z,101913.05
2019-03-28T16:25:12.048Z,101911.42
2019-03-28T16:27:41.787Z,101914.50
2019-03-28T16:30:12.531Z,101928.30
2019-03-28T16:32:42.376Z,101921.42
2019-03-28T16:35:11.993Z,101922.77
2019-03-28T16:37:41.521Z,101932.67
2019-03-28T16:40:11.365Z,101935.08
2019-03-28T16:42:41.737Z,101940.71
2019-03-28T16:45:10.949Z,101951.60
2019-03-28T16:47:40.643Z,101944.24
2019-03-28T16:50:12.018Z,101958.20
2019-03-28T16:52:41.777Z,101953.59
2019-03-28T16:55:11.378Z,101968.38
2019-03-28T16:57:41.113Z,101965.94
2019-03-28T17:00:14.105Z,101967.23
2019-03-28T17:02:43.820Z,101966.27
2019-03-28T17:05:13.572Z,101979.93
2019-03-28T17:07:43.974Z,101984.94
2019-03-28T17:10:16.945Z,101992.50
2019-03-28T17:12:46.730Z,101994.92
2019-03-28T17:15:16.292Z,101999.83
2019-03-28T17:17:45.905Z,102003.63
2019-03-28T17:20:15.519Z,102004.84
2019-03-28T17:22:45.168Z,102008.12
2019-03-28T17:25:14.795Z,102001.12
2019-03-28T17:27:46.566Z,102008.30
2019-03-28T17:30:16.082Z,102013.59
2019-03-28T17:32:45.816Z,102012.77
2019-03-28T17:35:15.552Z,102009.58
2019-03-28T17:37:45.277Z,102020.41
2019-03-28T17:40:14.900Z,102014.64
2019-03-28T17:42:47.735Z,102013.89
2019-03-28T17:45:15.896Z,102017.20
2019-03-28T17:47:45.529Z,102014.52
2019-03-28T17:50:15.004Z,102020.34
2019-03-28T17:52:45.808Z,102022.97
2019-03-28T17:55:15.558Z,102028.85
2019-03-28T17:57:45.378Z,102025.36
2019-03-28T18:00:15.093Z,102024.93
2019-03-28T18:02:44.819Z,102025.00
2019-03-28T18:05:15.974Z,102022.28
2019-03-28T18:07:45.919Z,102030.30
2019-03-28T18:10:15.546Z,102029.21
2019-03-28T18:12:45.278Z,102032.80
2019-03-28T18:15:15.048Z,102033.91
2019-03-28T18:17:45.398Z,102032.98
2019-03-28T18:20:15.592Z,102040.37
2019-03-28T18:22:45.227Z,102033.69
2019-03-28T18:25:16.097Z,102029.67
2019-03-28T18:27:45.933Z,102038.05
2019-03-28T18:30:16.175Z,102034.66
2019-03-28T18:32:45.776Z,102040.34
2019-03-28T18:35:15.393Z,102032.12
2019-03-28T18:37:45.059Z,102036.98
2019-03-28T18:40:14.675Z,102039.98
2019-03-28T18:42:44.289Z,102041.37
2019-03-28T18:45:13.916Z,102044.36
2019-03-28T18:47:43.911Z,102046.84
2019-03-28T18:50:13.686Z,102042.98
2019-03-28T18:52:43.318Z,102045.78
2019-03-28T18:55:12.941Z,102046.56
2019-03-28T18:57:42.573Z,102048.70
2019-03-28T19:00:12.206Z,102046.98
2019-03-28T19:02:43.489Z,102048.34
2019-03-28T19:05:19.741Z,102044.66
2019-03-28T19:07:44.564Z,102043.33
2019-03-28T19:10:14.901Z,102051.27
2019-03-28T19:12:44.467Z,102045.28
2019-03-28T19:15:14.053Z,102052.70
2019-03-28T19:17:43.791Z,102050.37
2019-03-28T19:20:15.053Z,102046.84
2019-03-28T19:22:44.677Z,102049.12
2019-03-28T19:25:14.309Z,102046.77
2019-03-28T19:27:44.807Z,102052.55
2019-03-28T19:30:14.679Z,102042.28
2019-03-28T19:32:44.308Z,102042.95
2019-03-28T19:35:13.997Z,102046.16
2019-03-28T19:37:43.788Z,102043.52
2019-03-28T19:40:13.566Z,102047.80
2019-03-28T19:42:44.011Z,102052.58
2019-03-28T19:45:17.059Z,102053.30
2019-03-28T19:47:46.629Z,102052.88
2019-03-28T19:50:19.479Z,102047.89
2019-03-28T19:52:49.108Z,102055.91
2019-03-28T19:55:22.016Z,102055.56
2019-03-28T19:57:51.837Z,102053.89
2019-03-28T20:00:21.429Z,102058.30
2019-03-28T20:02:51.028Z,102066.37
2019-03-28T20:05:20.725Z,102066.05
2019-03-28T20:07:50.346Z,102071.61
2019-03-28T20:10:19.999Z,102058.59
2019-03-28T20:12:49.451Z,102058.59
2019-03-28T20:15:19.140Z,102070.25
2019-03-28T20:17:48.872Z,102073.39
2019-03-28T20:20:18.403Z,102075.70
2019-03-28T20:22:47.931Z,102081.36
2019-03-28T20:25:17.461Z,102082.84
2019-03-28T20:27:49.942Z,102078.21
2019-03-28T20:30:19.763Z,102079.30
2019-03-28T20:32:49.391Z,102085.62
2019-03-28T20:35:19.074Z,102082.25
2019-03-28T20:37:49.678Z,102089.87
2019-03-28T20:40:19.407Z,102085.10
2019-03-28T20:42:48.876Z,102075.39
2019-03-28T20:45:18.861Z,102088.41
2019-03-28T20:47:48.399Z,102095.80
2019-03-28T20:50:18.025Z,102100.56
2019-03-28T20:52:47.581Z,102103.10
2019-03-28T20:55:17.238Z,102096.64
2019-03-28T20:57:46.904Z,102102.48
2019-03-28T21:00:18.126Z,102104.40
2019-03-28T21:02:48.731Z,102109.25
2019-03-28T21:05:18.641Z,102112.23
2019-03-28T21:07:48.231Z,102114.33
2019-03-28T21:10:24.706Z,102111.21
2019-03-28T21:12:54.739Z,102117.46
2019-03-28T21:15:24.299Z,102109.07
2019-03-28T21:17:53.864Z,102113.95
2019-03-28T21:20:23.463Z,102111.16
2019-03-28T21:22:53.204Z,102102.88
2019-03-28T21:25:22.910Z,102115.30
2019-03-28T21:27:52.554Z,102106.30
2019-03-28T21:30:22.023Z,102105.69
2019-03-28T21:32:55.546Z,102105.69
2019-03-28T21:35:23.085Z,102105.67
2019-03-28T21:37:52.706Z,102107.88
2019-03-28T21:43:00.065Z,102103.42
2019-03-28T21:45:29.784Z,102109.25
2019-03-28T21:47:59.505Z,102111.97
2019-03-28T21:50:29.139Z,102111.75
2019-03-28T21:52:58.881Z,102114.31
2019-03-28T21:55:28.392Z,102122.80
2019-03-28T21:57:58.017Z,102124.50
2019-03-28T22:00:27.745Z,102118.30
2019-03-28T22:02:57.389Z,102128.09
2019-03-28T22:05:28.835Z,102125.43
2019-03-28T22:07:58.472Z,102126.81
2019-03-28T22:10:27.996Z,102129.59
2019-03-28T22:12:57.543Z,102122.66
2019-03-28T22:15:27.255Z,102121.17
2019-03-28T22:17:56.981Z,102130.01
2019-03-28T22:20:26.508Z,102126.71
2019-03-28T22:22:56.130Z,102128.51
2019-03-28T22:25:25.771Z,102123.56
2019-03-28T22:27:55.289Z,102124.92
2019-03-28T22:30:24.920Z,102125.80
2019-03-28T22:32:54.552Z,102119.46
2019-03-28T22:35:24.172Z,102117.47
2019-03-28T22:37:54.761Z,102121.26
2019-03-28T22:40:24.455Z,102119.12
2019-03-28T22:42:53.985Z,102116.97
2019-03-28T22:45:23.711Z,102124.67
2019-03-28T22:47:53.779Z,102116.91
2019-03-28T22:50:24.327Z,102115.75
2019-03-28T22:52:53.816Z,102110.33
2019-03-28T22:55:23.353Z,102110.08
2019-03-28T22:57:54.147Z,102106.23
2019-03-28T23:00:27.105Z,102112.30
2019-03-28T23:02:58.242Z,102113.02
2019-03-28T23:05:27.786Z,102106.50
2019-03-28T23:07:57.418Z,102107.69
2019-03-28T23:10:27.045Z,102105.88
2019-03-28T23:12:56.663Z,102108.84
2019-03-28T23:15:26.296Z,102107.13
2019-03-28T23:17:55.937Z,102106.13
2019-03-28T23:20:25.554Z,102106.58
2019-03-28T23:22:55.279Z,102098.33
2019-03-28T23:25:24.809Z,102106.58
2019-03-28T23:27:54.440Z,102101.44
2019-03-28T23:30:24.171Z,102104.08
2019-03-28T23:32:53.806Z,102111.77
2019-03-28T23:35:23.423Z,102111.94
2019-03-28T23:37:53.154Z,102116.63
2019-03-28T23:40:26.132Z,102124.16
2019-03-28T23:42:54.861Z,102124.59
2019-03-28T23:45:24.488Z,102118.87
2019-03-28T23:47:54.147Z,102119.50
2019-03-28T23:50:23.748Z,102128.52
2019-03-28T23:52:53.275Z,102124.09
2019-03-28T23:55:22.805Z,102127.49
2019-03-28T23:57:52.430Z,102122.86
